createdAt,value
2023-03-21T00:02:24.274Z,23.63
2023-03-21T00:04:54.936Z,21.60
2023-03-21T00:07:22.931Z,19.65
2023-03-21T00:09:51.496Z,22.55
2023-03-21T00:12:21.032Z,23.90
2023-03-21T00:14:48.941Z,22.98
2023-03-21T00:17:17.489Z,26.67
2023-03-21T00:19:46.254Z,21.52
2023-03-21T00:22:14.296Z,20.15
2023-03-21T00:24:42.091Z,24.30
2023-03-21T00:27:39.328Z,27.80
2023-03-21T00:29:59.131Z,21.88
2023-03-21T00:32:27.601Z,22.88
2023-03-21T00:35:11.933Z,27.63
2023-03-21T00:37:43.862Z,21.10
2023-03-21T00:40:25.334Z,23.88
2023-03-21T00:42:55.696Z,25.77
2023-03-21T00:45:25.025Z,25.95
2023-03-21T00:47:53.067Z,22.67
2023-03-21T00:50:21.147Z,22.30
2023-03-21T00:52:49.225Z,21.65
2023-03-21T00:55:19.337Z,24.55
2023-03-21T00:57:56.218Z,22.67
2023-03-21T01:00:30.976Z,23.77
2023-03-21T01:03:11.132Z,25.00
2023-03-21T01:06:00.668Z,22.50
2023-03-21T01:08:38.191Z,23.00
2023-03-21T01:11:14.861Z,23.73
2023-03-21T01:13:53.705Z,21.60
2023-03-21T01:16:27.211Z,22.40
2023-03-21T01:18:56.072Z,30.02
2023-03-21T01:21:24.256Z,26.60
2023-03-21T01:23:52.089Z,26.67
2023-03-21T01:26:19.957Z,20.42
2023-03-21T01:28:48.014Z,23.50
2023-03-21T01:31:17.580Z,24.35
2023-03-21T01:33:47.548Z,22.98
2023-03-21T01:36:22.439Z,28.60
2023-03-21T01:38:53.372Z,23.77
2023-03-21T01:41:33.628Z,23.02
2023-03-21T01:44:16.877Z,23.45
2023-03-21T01:46:57.004Z,26.60
2023-03-21T01:49:50.818Z,26.15
2023-03-21T01:52:36.402Z,29.48
2023-03-21T01:55:11.674Z,28.63
2023-03-21T01:58:03.882Z,28.27
2023-03-21T02:00:38.651Z,29.75
2023-03-21T02:03:35.060Z,31.90
2023-03-21T02:06:47.411Z,32.13
2023-03-21T02:09:40.830Z,29.93
2023-03-21T02:12:16.285Z,28.20
2023-03-21T02:17:28.251Z,27.02
2023-03-21T02:20:30.820Z,26.67
2023-03-21T02:23:48.803Z,31.70
2023-03-21T02:26:41.982Z,28.45
2023-03-21T02:29:32.996Z,28.25
2023-03-21T02:32:22.582Z,28.90
2023-03-21T02:35:21.095Z,25.42
2023-03-21T02:38:00.545Z,29.08
2023-03-21T02:40:36.270Z,31.23
2023-03-21T02:43:22.194Z,37.35
2023-03-21T02:45:55.630Z,28.23
2023-03-21T02:48:38.137Z,28.67
2023-03-21T02:51:17.319Z,28.55
2023-03-21T02:54:02.104Z,29.30
2023-03-21T02:56:40.299Z,29.20
2023-03-21T02:59:09.583Z,28.05
2023-03-21T03:01:38.353Z,30.33
2023-03-21T03:04:19.531Z,31.27
2023-03-21T03:07:07.839Z,29.88
2023-03-21T03:09:49.016Z,29.75
2023-03-21T03:12:24.255Z,28.42
2023-03-21T03:15:03.869Z,32.38
2023-03-21T03:17:44.436Z,33.28
2023-03-21T03:20:21.647Z,29.80
2023-03-21T03:22:56.483Z,32.40
2023-03-21T03:25:42.090Z,30.52
2023-03-21T03:28:15.506Z,29.35
2023-03-21T03:30:57.166Z,30.25
2023-03-21T03:33:37.115Z,34.95
2023-03-21T03:36:09.422Z,35.08
2023-03-21T03:38:40.346Z,37.05
2023-03-21T03:41:15.328Z,31.43
2023-03-21T03:43:52.313Z,31.85
2023-03-21T03:46:28.045Z,30.95
2023-03-21T03:48:59.406Z,37.70
2023-03-21T03:51:33.543Z,32.67
2023-03-21T03:54:14.058Z,31.92
2023-03-21T03:56:44.378Z,31.83
2023-03-21T03:59:12.582Z,30.25
2023-03-21T04:01:55.598Z,27.65
2023-03-21T04:04:28.571Z,31.60
2023-03-21T04:06:58.151Z,32.53
2023-03-21T04:09:41.248Z,29.75
2023-03-21T04:12:14.154Z,28.60
2023-03-21T04:14:48.187Z,29.35
2023-03-21T04:17:18.600Z,30.65
2023-03-21T04:19:46.670Z,30.25
2023-03-21T04:22:14.749Z,27.48
2023-03-21T04:27:15.510Z,28.05
2023-03-21T04:29:48.549Z,31.40
2023-03-21T04:32:26.799Z,31.90
2023-03-21T04:35:10.636Z,29.30
2023-03-21T04:37:40.242Z,28.05
2023-03-21T04:40:17.824Z,29.75
2023-03-21T04:42:48.946Z,31.35
2023-03-21T04:45:17.606Z,30.15
2023-03-21T04:47:46.893Z,32.25
2023-03-21T04:50:15.906Z,27.73
2023-03-21T04:52:44.325Z,34.30
2023-03-21T04:55:12.245Z,28.92
2023-03-21T04:57:40.416Z,31.05
2023-03-21T05:00:13.024Z,28.08
2023-03-21T05:02:41.109Z,32.28
2023-03-21T05:05:11.365Z,29.35
2023-03-21T05:10:08.856Z,31.85
2023-03-21T05:12:36.995Z,25.80
2023-03-21T05:15:05.540Z,23.23
2023-03-21T05:17:34.797Z,28.17
2023-03-21T05:20:05.667Z,29.80
2023-03-21T05:22:40.348Z,24.48
2023-03-21T05:25:12.260Z,29.42
2023-03-21T05:28:09.555Z,29.33
2023-03-21T05:30:37.830Z,25.92
2023-03-21T05:33:07.032Z,27.83
2023-03-21T05:35:36.208Z,33.92
2023-03-21T05:38:06.928Z,32.28
2023-03-21T05:40:48.063Z,28.52
2023-03-21T05:43:15.863Z,28.70
2023-03-21T05:45:44.248Z,25.85
2023-03-21T05:48:13.773Z,26.23
2023-03-21T05:50:59.808Z,28.83
2023-03-21T05:53:28.094Z,23.02
2023-03-21T05:55:56.315Z,28.98
2023-03-21T05:58:40.600Z,26.02
2023-03-21T06:01:08.808Z,22.10
2023-03-21T06:03:40.503Z,23.50
2023-03-21T06:06:14.638Z,25.98
2023-03-21T06:09:08.529Z,23.73
2023-03-21T06:11:39.828Z,26.40
2023-03-21T06:14:30.691Z,21.40
2023-03-21T06:17:17.881Z,24.52
2023-03-21T06:19:58.392Z,27.80
2023-03-21T06:22:30.828Z,23.58
2023-03-21T06:24:58.974Z,32.55
2023-03-21T06:27:27.979Z,28.15
2023-03-21T06:29:58.026Z,27.50
2023-03-21T06:32:27.285Z,24.77
2023-03-21T06:35:02.153Z,28.35
2023-03-21T06:37:29.932Z,34.08
2023-03-21T06:39:58.006Z,28.90
2023-03-21T06:42:26.392Z,24.33
2023-03-21T06:45:00.314Z,28.48
2023-03-21T06:47:28.962Z,22.73
2023-03-21T06:49:57.372Z,22.27
2023-03-21T06:52:26.660Z,27.10
2023-03-21T06:54:54.939Z,28.73
2023-03-21T06:57:22.917Z,23.02
2023-03-21T06:59:51.773Z,21.75
2023-03-21T07:02:21.858Z,20.52
2023-03-21T07:05:10.675Z,23.05
2023-03-21T07:07:39.864Z,24.05
2023-03-21T07:12:45.915Z,22.65
2023-03-21T07:15:26.317Z,24.60
2023-03-21T07:17:54.350Z,22.77
2023-03-21T07:20:22.206Z,24.98
2023-03-21T07:22:51.522Z,24.00
2023-03-21T07:25:20.541Z,27.00
2023-03-21T07:27:49.412Z,22.20
2023-03-21T07:30:18.196Z,31.05
2023-03-21T07:32:47.680Z,25.17
2023-03-21T07:35:18.544Z,22.85
2023-03-21T07:37:46.384Z,26.70
2023-03-21T07:40:18.975Z,27.90
2023-03-21T07:42:49.637Z,22.70
2023-03-21T07:45:28.901Z,24.45
2023-03-21T07:47:56.712Z,28.92
2023-03-21T07:50:25.144Z,24.63
2023-03-21T07:52:52.956Z,25.85
2023-03-21T07:55:22.577Z,24.52
2023-03-21T07:57:51.537Z,23.98
2023-03-21T08:00:23.034Z,26.92
2023-03-21T08:02:57.921Z,21.95
2023-03-21T08:05:30.894Z,29.20
2023-03-21T08:07:58.683Z,21.25
2023-03-21T08:10:28.246Z,19.38
2023-03-21T08:12:56.264Z,16.95
2023-03-21T08:15:24.317Z,19.30
2023-03-21T08:17:52.156Z,21.50
2023-03-21T08:20:21.954Z,19.98
2023-03-21T08:22:50.432Z,19.85
2023-03-21T08:25:21.696Z,20.40
2023-03-21T08:27:52.372Z,22.30
2023-03-21T08:30:22.193Z,21.42
2023-03-21T08:32:50.983Z,17.30
2023-03-21T08:35:20.641Z,27.23
2023-03-21T08:37:48.795Z,19.98
2023-03-21T08:40:18.885Z,18.90
2023-03-21T08:42:47.535Z,24.65
2023-03-21T08:45:18.494Z,25.15
2023-03-21T08:47:46.750Z,18.05
2023-03-21T08:50:17.148Z,19.58
2023-03-21T08:55:14.142Z,22.75
2023-03-21T08:57:42.116Z,18.33
2023-03-21T09:00:13.955Z,17.17
2023-03-21T09:02:43.437Z,19.58
2023-03-21T09:05:12.865Z,16.15
2023-03-21T09:07:41.617Z,14.38
2023-03-21T09:10:22.365Z,19.25
2023-03-21T09:12:51.684Z,16.23
2023-03-21T09:15:21.642Z,17.30
2023-03-21T09:17:53.268Z,20.55
2023-03-21T09:20:26.177Z,18.52
2023-03-21T09:22:54.941Z,16.83
2023-03-21T09:25:23.667Z,17.35
2023-03-21T09:27:51.838Z,15.45
2023-03-21T09:30:23.730Z,14.48
2023-03-21T09:32:55.750Z,15.77
2023-03-21T09:37:52.593Z,14.52
2023-03-21T09:40:25.607Z,21.52
2023-03-21T09:43:05.957Z,16.30
2023-03-21T09:48:20.056Z,13.07
2023-03-21T09:50:48.493Z,16.55
2023-03-21T09:53:27.078Z,17.02
2023-03-21T09:55:54.995Z,18.90
2023-03-21T09:58:28.481Z,18.35
2023-03-21T10:01:05.274Z,17.73
2023-03-21T10:03:36.356Z,18.67
2023-03-21T10:06:11.379Z,19.83
2023-03-21T10:08:42.227Z,17.23
2023-03-21T10:11:16.994Z,20.65
2023-03-21T10:13:49.483Z,20.20
2023-03-21T10:16:22.511Z,19.23
2023-03-21T10:18:52.342Z,21.48
2023-03-21T10:21:51.282Z,21.75
2023-03-21T10:24:15.725Z,22.73
2023-03-21T10:26:45.017Z,24.10
2023-03-21T10:29:16.684Z,16.38
2023-03-21T10:31:46.181Z,16.67
2023-03-21T10:34:19.775Z,22.33
2023-03-21T10:36:48.303Z,23.65
2023-03-21T10:39:25.552Z,21.65
2023-03-21T10:41:53.325Z,25.27
2023-03-21T10:44:22.491Z,22.98
2023-03-21T10:46:53.465Z,25.02
2023-03-21T10:49:23.466Z,22.88
2023-03-21T10:51:53.382Z,26.77
2023-03-21T10:54:23.279Z,22.88
2023-03-21T10:56:58.785Z,23.77
2023-03-21T10:59:30.136Z,28.40
2023-03-21T11:01:58.211Z,22.83
2023-03-21T11:04:30.834Z,20.60
2023-03-21T11:07:01.297Z,24.90
2023-03-21T11:09:46.033Z,28.40
2023-03-21T11:12:15.924Z,26.48
2023-03-21T11:14:45.620Z,23.65
2023-03-21T11:17:24.860Z,21.38
2023-03-21T11:19:57.891Z,22.30
2023-03-21T11:22:30.265Z,21.52
2023-03-21T11:25:02.651Z,23.90
2023-03-21T11:27:32.418Z,22.73
2023-03-21T11:30:05.090Z,16.65
2023-03-21T11:32:35.891Z,20.80
2023-03-21T11:35:07.783Z,19.05
2023-03-21T11:37:39.730Z,19.48
2023-03-21T11:40:20.522Z,16.80
2023-03-21T11:42:51.870Z,13.77
2023-03-21T11:45:21.780Z,16.67
2023-03-21T11:47:52.233Z,16.90
2023-03-21T11:50:28.174Z,18.23
2023-03-21T11:53:16.913Z,13.93
2023-03-21T11:55:55.334Z,15.27
2023-03-21T11:58:38.910Z,13.85
2023-03-21T12:01:17.602Z,14.35
2023-03-21T12:04:01.227Z,15.77
2023-03-21T12:06:36.116Z,11.93
2023-03-21T12:09:15.636Z,11.70
2023-03-21T12:11:59.174Z,11.60
2023-03-21T12:14:37.982Z,11.82
2023-03-21T12:17:13.815Z,12.90
2023-03-21T12:20:10.762Z,14.60
2023-03-21T12:22:48.451Z,16.23
2023-03-21T12:25:19.538Z,14.55
2023-03-21T12:28:02.791Z,15.30
2023-03-21T12:30:36.524Z,16.63
2023-03-21T12:33:24.060Z,12.75
2023-03-21T12:36:13.054Z,14.60
2023-03-21T12:38:47.886Z,12.68
2023-03-21T12:41:25.533Z,12.38
2023-03-21T12:44:00.618Z,15.07
2023-03-21T12:46:34.562Z,14.02
2023-03-21T12:49:08.913Z,12.75
2023-03-21T12:51:42.219Z,13.63
2023-03-21T12:54:18.940Z,13.15
2023-03-21T12:56:53.991Z,16.75
2023-03-21T12:59:33.347Z,12.25
2023-03-21T13:02:15.450Z,13.83
2023-03-21T13:04:48.554Z,12.70
2023-03-21T13:07:21.000Z,11.73
2023-03-21T13:09:51.308Z,14.75
2023-03-21T13:15:03.514Z,12.32
2023-03-21T13:17:38.079Z,12.38
2023-03-21T13:20:20.193Z,17.48
2023-03-21T13:22:48.174Z,11.80
2023-03-21T13:25:22.907Z,13.90
2023-03-21T13:27:55.761Z,9.65
2023-03-21T13:30:26.484Z,10.75
2023-03-21T13:33:05.691Z,10.10
2023-03-21T13:35:38.382Z,9.43
2023-03-21T13:38:12.881Z,12.55
2023-03-21T13:40:46.358Z,12.85
2023-03-21T13:43:34.832Z,9.88
2023-03-21T13:46:08.693Z,9.55
2023-03-21T13:48:59.092Z,10.70
2023-03-21T13:51:44.217Z,13.95
2023-03-21T13:54:21.840Z,8.98
2023-03-21T13:56:54.136Z,9.05
2023-03-21T13:59:39.377Z,11.13
2023-03-21T14:02:28.537Z,13.13
2023-03-21T14:05:05.449Z,9.40
2023-03-21T14:07:36.654Z,11.95
2023-03-21T14:10:07.917Z,12.27
2023-03-21T14:12:40.706Z,9.38
2023-03-21T14:15:18.840Z,10.02
2023-03-21T14:17:54.818Z,14.40
2023-03-21T14:20:25.593Z,10.75
2023-03-21T14:22:53.791Z,8.55
2023-03-21T14:25:27.225Z,8.68
2023-03-21T14:28:01.271Z,10.23
2023-03-21T14:30:33.265Z,10.10
2023-03-21T14:33:06.864Z,8.23
2023-03-21T14:35:35.222Z,8.88
2023-03-21T14:38:07.441Z,11.43
2023-03-21T14:40:36.211Z,9.48
2023-03-21T14:43:07.503Z,9.18
2023-03-21T14:45:37.362Z,7.47
2023-03-21T14:48:08.514Z,8.20
2023-03-21T14:50:41.885Z,7.80
2023-03-21T14:53:17.186Z,6.88
2023-03-21T14:55:47.336Z,8.20
2023-03-21T14:58:19.189Z,8.50
2023-03-21T15:00:50.474Z,8.90
2023-03-21T15:03:18.973Z,10.55
2023-03-21T15:05:47.508Z,11.88
2023-03-21T15:08:17.079Z,9.23
2023-03-21T15:11:06.335Z,11.75
2023-03-21T15:13:41.280Z,11.40
2023-03-21T15:16:10.842Z,16.25
2023-03-21T15:18:41.128Z,10.00
2023-03-21T15:21:17.192Z,11.25
2023-03-21T15:23:47.437Z,11.48
2023-03-21T15:28:48.673Z,9.75
2023-03-21T15:31:19.635Z,8.95
2023-03-21T15:33:48.726Z,18.73
2023-03-21T15:36:21.859Z,10.15
2023-03-21T15:38:50.387Z,8.88
2023-03-21T15:41:27.698Z,9.02
2023-03-21T15:44:03.299Z,13.18
2023-03-21T15:46:41.639Z,9.15
2023-03-21T15:49:12.300Z,9.35
2023-03-21T15:51:42.709Z,12.45
2023-03-21T15:54:15.193Z,10.43
2023-03-21T15:56:46.076Z,11.35
2023-03-21T15:59:18.106Z,9.25
2023-03-21T16:01:47.662Z,9.50
2023-03-21T16:04:18.389Z,9.52
2023-03-21T16:06:57.884Z,9.27
2023-03-21T16:09:26.356Z,9.00
2023-03-21T16:11:55.439Z,9.15
2023-03-21T16:14:27.784Z,8.05
2023-03-21T16:16:56.243Z,10.05
2023-03-21T16:19:24.895Z,9.27
2023-03-21T16:21:53.326Z,8.02
2023-03-21T16:24:21.056Z,10.35
2023-03-21T16:26:51.720Z,9.60
2023-03-21T16:29:20.700Z,8.30
2023-03-21T16:31:50.018Z,7.55
2023-03-21T16:34:17.878Z,7.67
2023-03-21T16:36:45.816Z,7.00
2023-03-21T16:39:19.839Z,6.75
2023-03-21T16:41:48.333Z,8.65
2023-03-21T16:44:16.616Z,7.70
2023-03-21T16:46:44.541Z,8.02
2023-03-21T16:49:21.842Z,8.52
2023-03-21T16:51:49.677Z,8.00
2023-03-21T16:54:17.961Z,8.60
2023-03-21T16:56:47.659Z,8.73
2023-03-21T16:59:16.220Z,7.97
2023-03-21T17:01:45.946Z,9.20
2023-03-21T17:04:14.766Z,7.45
2023-03-21T17:06:47.331Z,8.05
2023-03-21T17:09:17.054Z,7.25
2023-03-21T17:11:44.817Z,7.30
2023-03-21T17:14:14.280Z,8.77
2023-03-21T17:16:43.049Z,8.05
2023-03-21T17:19:16.144Z,8.85
2023-03-21T17:21:45.610Z,8.18
2023-03-21T17:24:13.671Z,10.07
2023-03-21T17:26:41.494Z,9.70
2023-03-21T17:29:11.958Z,8.75
2023-03-21T17:31:39.832Z,9.07
2023-03-21T17:34:08.522Z,12.85
2023-03-21T17:36:38.134Z,7.35
2023-03-21T17:39:09.447Z,7.60
2023-03-21T17:41:37.332Z,7.10
2023-03-21T17:44:05.360Z,6.75
2023-03-21T17:46:37.462Z,6.60
2023-03-21T17:49:06.145Z,6.57
2023-03-21T17:51:34.075Z,8.70
2023-03-21T17:54:02.430Z,7.57
2023-03-21T17:56:33.407Z,6.38
2023-03-21T17:59:04.205Z,7.63
2023-03-21T18:01:32.924Z,6.00
2023-03-21T18:04:02.739Z,5.75
2023-03-21T18:06:30.744Z,6.50
2023-03-21T18:08:59.677Z,6.35
2023-03-21T18:11:28.500Z,6.32
2023-03-21T18:14:13.846Z,5.75
2023-03-21T18:16:43.895Z,6.82
2023-03-21T18:19:13.165Z,6.18
2023-03-21T18:21:44.795Z,10.35
2023-03-21T18:24:13.035Z,6.05
2023-03-21T18:26:41.209Z,7.63
2023-03-21T18:32:06.822Z,11.10
2023-03-21T18:34:36.258Z,17.52
2023-03-21T18:37:04.530Z,10.80
2023-03-21T18:39:33.006Z,9.02
2023-03-21T18:42:02.486Z,11.10
2023-03-21T18:44:37.299Z,8.90
2023-03-21T18:47:06.513Z,9.10
2023-03-21T18:50:10.449Z,7.00
2023-03-21T18:52:22.906Z,7.40
2023-03-21T18:54:50.778Z,5.45
2023-03-21T18:57:37.422Z,6.97
2023-03-21T19:00:13.056Z,6.43
2023-03-21T19:02:45.999Z,7.78
2023-03-21T19:05:16.001Z,7.75
2023-03-21T19:07:43.853Z,5.78
2023-03-21T19:10:17.972Z,7.55
2023-03-21T19:12:46.751Z,5.60
2023-03-21T19:15:18.683Z,6.20
2023-03-21T19:18:28.573Z,7.00
2023-03-21T19:20:35.122Z,7.07
2023-03-21T19:23:03.307Z,6.38
2023-03-21T19:25:31.265Z,8.27
2023-03-21T19:27:59.038Z,6.93
2023-03-21T19:30:28.282Z,7.63
2023-03-21T19:32:56.257Z,8.48
2023-03-21T19:35:24.156Z,8.25
2023-03-21T19:37:51.998Z,11.65
2023-03-21T19:40:20.632Z,15.02
2023-03-21T19:42:48.490Z,11.40
2023-03-21T19:45:16.309Z,7.82
2023-03-21T19:47:46.240Z,7.65
2023-03-21T19:53:02.013Z,8.40
2023-03-21T19:55:29.973Z,12.05
2023-03-21T19:57:58.063Z,8.48
2023-03-21T20:00:26.016Z,9.57
2023-03-21T20:02:55.461Z,12.23
2023-03-21T20:05:25.612Z,8.17
2023-03-21T20:07:55.376Z,7.05
2023-03-21T20:10:23.472Z,9.50
2023-03-21T20:12:51.391Z,7.55
2023-03-21T20:15:21.620Z,7.13
2023-03-21T20:17:50.397Z,8.63
2023-03-21T20:20:20.293Z,7.75
2023-03-21T20:23:10.745Z,7.85
2023-03-21T20:25:41.403Z,10.00
2023-03-21T20:28:24.711Z,8.02
2023-03-21T20:30:58.545Z,20.60
2023-03-21T20:33:26.989Z,25.42
2023-03-21T20:38:50.918Z,18.67
2023-03-21T20:41:18.965Z,9.38
2023-03-21T20:44:28.468Z,8.43
2023-03-21T20:46:37.108Z,9.10
2023-03-21T20:49:07.666Z,9.82
2023-03-21T20:54:25.728Z,8.48
2023-03-21T20:56:54.020Z,10.35
2023-03-21T20:59:27.198Z,7.97
2023-03-21T21:01:57.449Z,9.45
2023-03-21T21:04:44.122Z,9.68
2023-03-21T21:07:17.307Z,8.90
2023-03-21T21:09:46.476Z,7.90
2023-03-21T21:12:16.409Z,8.20
2023-03-21T21:14:45.422Z,9.43
2023-03-21T21:20:02.393Z,10.73
2023-03-21T21:22:32.533Z,10.70
2023-03-21T21:25:00.587Z,9.55
2023-03-21T21:27:28.522Z,10.75
2023-03-21T21:29:57.532Z,12.65
2023-03-21T21:32:25.526Z,13.05
2023-03-21T21:34:53.567Z,12.05
2023-03-21T21:37:22.520Z,11.07
2023-03-21T21:39:51.729Z,8.18
2023-03-21T21:42:19.820Z,9.65
2023-03-21T21:44:47.943Z,9.32
2023-03-21T21:47:15.804Z,10.95
2023-03-21T21:49:43.942Z,9.50
2023-03-21T21:52:13.687Z,10.38
2023-03-21T21:54:45.588Z,10.48
2023-03-21T21:57:18.962Z,13.38
2023-03-21T21:59:46.814Z,11.13
2023-03-21T22:02:16.906Z,11.32
2023-03-21T22:04:44.805Z,12.52
2023-03-21T22:07:14.610Z,15.00
2023-03-21T22:09:42.786Z,11.27
2023-03-21T22:12:10.777Z,11.90
2023-03-21T22:14:40.969Z,12.80
2023-03-21T22:19:37.837Z,14.10
2023-03-21T22:22:07.685Z,15.40
2023-03-21T22:24:35.768Z,12.40
2023-03-21T22:27:03.775Z,11.70
2023-03-21T22:29:31.583Z,12.45
2023-03-21T22:32:00.891Z,14.02
2023-03-21T22:34:28.745Z,12.98
2023-03-21T22:36:57.705Z,12.88
2023-03-21T22:39:26.388Z,12.20
2023-03-21T22:41:55.136Z,12.65
2023-03-21T22:44:23.010Z,12.57
2023-03-21T22:46:50.830Z,12.52
2023-03-21T22:49:20.238Z,11.95
2023-03-21T22:51:48.017Z,14.37
2023-03-21T22:54:15.922Z,15.52
2023-03-21T22:56:43.687Z,14.63
2023-03-21T22:59:11.499Z,13.85
2023-03-21T23:01:39.953Z,14.05
2023-03-21T23:04:07.943Z,15.25
2023-03-21T23:06:37.392Z,15.52
2023-03-21T23:09:05.335Z,15.60
2023-03-21T23:11:33.166Z,17.10
2023-03-21T23:14:07.810Z,16.13
2023-03-21T23:16:38.328Z,16.10
2023-03-21T23:21:38.321Z,15.07
2023-03-21T23:24:07.147Z,15.85
2023-03-21T23:26:35.778Z,14.50
2023-03-21T23:29:04.376Z,15.77
2023-03-21T23:31:33.018Z,14.63
2023-03-21T23:34:01.870Z,14.25
2023-03-21T23:36:30.400Z,11.95
2023-03-21T23:38:59.562Z,12.75
2023-03-21T23:41:27.394Z,12.18
2023-03-21T23:43:55.262Z,12.00
2023-03-21T23:46:23.165Z,16.13
2023-03-21T23:48:51.193Z,16.02
2023-03-21T23:51:19.379Z,13.88
2023-03-21T23:53:47.602Z,13.18
2023-03-21T23:56:19.549Z,13.50
2023-03-21T23:58:48.130Z,14.05
